Lana Louise — WDC2702 — position and weather

sailwx.info

Track history (hours):
 
Tides and Currents Weather Stations Pressure Air Temp Water Temp Dewpoint Dewpoint Depression Visibility Wind Speed Wind Dir Waves Ship Positions

Lana Louise

Owner: Kirby Inland Marine LP, Houston, TX. More information available from US FCC via Universal Licensing System and Coast Guard Vessel Documentation Center.

Last reported at 2017-Oct-19 11:57 UTC. Time now 2017-Oct-20 03:23 UTC.
Position N 29°45' W 095°06'.

Length 108 m; draft 2.6 m.

Type: . MMSI: 366996580.

Date/timePositionNaut miles runAvg speedWind from/ knotsBaromVisibWave heightAir tempDewpointWater temp
2017-Oct-19 11:57N 29°45' W 095°06'1 0.7
2017-Oct-19 11:06N 29°45' W 095°06'0 0.4
2017-Oct-19 10:59N 29°45' W 095°06'0 0.0
2017-Oct-19 04:22N 29°45' W 095°06'0 0.0
2017-Oct-19 03:55N 29°45' W 095°06'0 0.0
2017-Oct-19 03:25N 29°45' W 095°06'0 0.0
2017-Oct-18 23:46N 29°45' W 095°06'0 0.2
2017-Oct-18 21:51N 29°46' W 095°05'5 0.7
2017-Oct-18 13:55N 29°45' W 095°11'2 4.4
2017-Oct-18 13:29N 29°43' W 095°13'2 4.8
2017-Oct-18 13:00N 29°44' W 095°16'2 1.9
2017-Oct-18 12:00N 29°45' W 095°17'0 0.1
2017-Oct-18 11:30N 29°45' W 095°17'0 0.1
2017-Oct-18 10:54N 29°45' W 095°17'0 0.0
2017-Oct-18 10:27N 29°45' W 095°17'0 0.0
2017-Oct-18 08:56N 29°45' W 095°17'0 0.0
2017-Oct-18 08:05N 29°45' W 095°17'0 0.0
2017-Oct-18 06:53N 29°45' W 095°17'0 0.0
2017-Oct-18 06:29N 29°45' W 095°17'0 0.0
2017-Oct-18 05:59N 29°45' W 095°17'0 0.1
2017-Oct-18 05:30N 29°45' W 095°17'0 0.5
2017-Oct-18 04:50N 29°45' W 095°17'0 0.0
2017-Oct-18 04:30N 29°45' W 095°17'0 0.4
2017-Oct-18 04:00N 29°44' W 095°17'1 1.5
2017-Oct-18 03:30N 29°44' W 095°17'2 3.5
2017-Oct-18 03:00N 29°43' W 095°15'2 4.6
2017-Oct-18 02:30N 29°44' W 095°12'2 3.6
2017-Oct-18 01:58N 29°45' W 095°10'3 3.8
2017-Oct-18 01:13N 29°44' W 095°07'2 0.2
2017-Oct-17 11:48N 29°46' W 095°05'0 1.2
2017-Oct-17 11:24N 29°46' W 095°06'0 0.1
2017-Oct-17 10:57N 29°45' W 095°06'0 0.0
2017-Oct-17 04:20N 29°45' W 095°06'0 0.1
2017-Oct-17 03:02N 29°45' W 095°06'0 1.9
2017-Oct-17 02:52N 29°46' W 095°05'2 4.3
2017-Oct-17 02:27N 29°45' W 095°04'3 4.4
2017-Oct-17 01:44N 29°42' W 095°01'1 4.8
2017-Oct-17 01:30N 29°42' W 094°60'3 5.4
2017-Oct-17 01:00N 29°40' W 094°58'3 5.8
2017-Oct-17 00:30N 29°37' W 094°57'3 5.6
2017-Oct-17 00:00N 29°35' W 094°56'3 5.7
2017-Oct-16 23:30N 29°32' W 094°54'1 0.0
2017-Oct-15 21:27N 29°32' W 094°54'2 4.8
2017-Oct-15 21:00N 29°33' W 094°55'3 5.0
2017-Oct-15 20:30N 29°35' W 094°56'3 5.2
2017-Oct-15 20:00N 29°38' W 094°58'3 5.4
2017-Oct-15 19:30N 29°40' W 094°59'3 5.3
2017-Oct-15 19:00N 29°42' W 095°01'2 4.6
2017-Oct-15 18:29N 29°44' W 095°03'  
2017-Oct-12 22:03N 29°46' W 095°05'0 0.0
2017-Oct-12 22:00N 29°46' W 095°05'2 0.2
2017-Oct-12 12:56N 29°44' W 095°07'0 0.0
2017-Oct-12 12:30N 29°44' W 095°07'0 0.0
2017-Oct-12 11:55N 29°44' W 095°07'2 3.3
2017-Oct-12 11:25N 29°45' W 095°06'0 0.0
2017-Oct-11 20:08N 29°46' W 095°05'1 0.3
2017-Oct-11 18:06N 29°45' W 095°06'0 0.0
2017-Oct-10 18:52N 29°45' W 095°06'1 0.1
2017-Oct-10 12:34N 29°46' W 095°07'0 2.3
2017-Oct-10 12:24N 29°46' W 095°06'1 0.1
2017-Oct-10 07:28N 29°46' W 095°06'1 2.0
2017-Oct-10 06:43N 29°45' W 095°04'1 5.1
2017-Oct-10 06:30N 29°44' W 095°03'3 4.5
2017-Oct-10 05:51N 29°42' W 095°01'2 5.3
2017-Oct-10 05:30N 29°41' W 094°59'3 5.4
2017-Oct-10 05:00N 29°39' W 094°58'3 5.5
2017-Oct-10 04:30N 29°36' W 094°57'3 5.5
2017-Oct-10 04:00N 29°34' W 094°55'3 5.8
2017-Oct-10 03:30N 29°32' W 094°53'  
Track history (hours):
 
Tides and Currents Weather Stations Pressure Air Temp Water Temp Dewpoint Dewpoint Depression Visibility Wind Speed Wind Dir Waves Ship Positions

Lana Louise

Owner: Kirby Inland Marine LP, Houston, TX. More information available from US FCC via Universal Licensing System and Coast Guard Vessel Documentation Center.

Last reported at 2017-Oct-19 11:57 UTC. Time now 2017-Oct-20 03:23 UTC.
Position N 29°45' W 095°06'.

Length 108 m; draft 2.6 m.

Type: . MMSI: 366996580.

Date/timePositionNaut miles runAvg speedWind from/ knotsBaromVisibWave heightAir tempDewpointWater temp
2017-Oct-19 11:57N 29°45' W 095°06'1 0.7
2017-Oct-19 11:06N 29°45' W 095°06'0 0.4
2017-Oct-19 10:59N 29°45' W 095°06'0 0.0
2017-Oct-19 04:22N 29°45' W 095°06'0 0.0
2017-Oct-19 03:55N 29°45' W 095°06'0 0.0
2017-Oct-19 03:25N 29°45' W 095°06'0 0.0
2017-Oct-18 23:46N 29°45' W 095°06'0 0.2
2017-Oct-18 21:51N 29°46' W 095°05'5 0.7
2017-Oct-18 13:55N 29°45' W 095°11'2 4.4
2017-Oct-18 13:29N 29°43' W 095°13'2 4.8
2017-Oct-18 13:00N 29°44' W 095°16'2 1.9
2017-Oct-18 12:00N 29°45' W 095°17'0 0.1
2017-Oct-18 11:30N 29°45' W 095°17'0 0.1
2017-Oct-18 10:54N 29°45' W 095°17'0 0.0
2017-Oct-18 10:27N 29°45' W 095°17'0 0.0
2017-Oct-18 08:56N 29°45' W 095°17'0 0.0
2017-Oct-18 08:05N 29°45' W 095°17'0 0.0
2017-Oct-18 06:53N 29°45' W 095°17'0 0.0
2017-Oct-18 06:29N 29°45' W 095°17'0 0.0
2017-Oct-18 05:59N 29°45' W 095°17'0 0.1
2017-Oct-18 05:30N 29°45' W 095°17'0 0.5
2017-Oct-18 04:50N 29°45' W 095°17'0 0.0
2017-Oct-18 04:30N 29°45' W 095°17'0 0.4
2017-Oct-18 04:00N 29°44' W 095°17'1 1.5
2017-Oct-18 03:30N 29°44' W 095°17'2 3.5
2017-Oct-18 03:00N 29°43' W 095°15'2 4.6
2017-Oct-18 02:30N 29°44' W 095°12'2 3.6
2017-Oct-18 01:58N 29°45' W 095°10'3 3.8
2017-Oct-18 01:13N 29°44' W 095°07'2 0.2
2017-Oct-17 11:48N 29°46' W 095°05'0 1.2
2017-Oct-17 11:24N 29°46' W 095°06'0 0.1
2017-Oct-17 10:57N 29°45' W 095°06'0 0.0
2017-Oct-17 04:20N 29°45' W 095°06'0 0.1
2017-Oct-17 03:02N 29°45' W 095°06'0 1.9
2017-Oct-17 02:52N 29°46' W 095°05'2 4.3
2017-Oct-17 02:27N 29°45' W 095°04'3 4.4
2017-Oct-17 01:44N 29°42' W 095°01'1 4.8
2017-Oct-17 01:30N 29°42' W 094°60'3 5.4
2017-Oct-17 01:00N 29°40' W 094°58'3 5.8
2017-Oct-17 00:30N 29°37' W 094°57'3 5.6
2017-Oct-17 00:00N 29°35' W 094°56'3 5.7
2017-Oct-16 23:30N 29°32' W 094°54'1 0.0
2017-Oct-15 21:27N 29°32' W 094°54'2 4.8
2017-Oct-15 21:00N 29°33' W 094°55'3 5.0
2017-Oct-15 20:30N 29°35' W 094°56'3 5.2
2017-Oct-15 20:00N 29°38' W 094°58'3 5.4
2017-Oct-15 19:30N 29°40' W 094°59'3 5.3
2017-Oct-15 19:00N 29°42' W 095°01'2 4.6
2017-Oct-15 18:29N 29°44' W 095°03'  
2017-Oct-12 22:03N 29°46' W 095°05'0 0.0
2017-Oct-12 22:00N 29°46' W 095°05'2 0.2
2017-Oct-12 12:56N 29°44' W 095°07'0 0.0
2017-Oct-12 12:30N 29°44' W 095°07'0 0.0
2017-Oct-12 11:55N 29°44' W 095°07'2 3.3
2017-Oct-12 11:25N 29°45' W 095°06'0 0.0
2017-Oct-11 20:08N 29°46' W 095°05'1 0.3
2017-Oct-11 18:06N 29°45' W 095°06'0 0.0
2017-Oct-10 18:52N 29°45' W 095°06'1 0.1
2017-Oct-10 12:34N 29°46' W 095°07'0 2.3
2017-Oct-10 12:24N 29°46' W 095°06'1 0.1
2017-Oct-10 07:28N 29°46' W 095°06'1 2.0
2017-Oct-10 06:43N 29°45' W 095°04'1 5.1
2017-Oct-10 06:30N 29°44' W 095°03'3 4.5
2017-Oct-10 05:51N 29°42' W 095°01'2 5.3
2017-Oct-10 05:30N 29°41' W 094°59'3 5.4
2017-Oct-10 05:00N 29°39' W 094°58'3 5.5
2017-Oct-10 04:30N 29°36' W 094°57'3 5.5
2017-Oct-10 04:00N 29°34' W 094°55'3 5.8
2017-Oct-10 03:30N 29°32' W 094°53'  

Dump ship's entire track history